createdAt,value
2017-12-16T00:01:56.867Z,64.80
2017-12-16T00:04:24.290Z,64.60
2017-12-16T00:06:51.735Z,64.20
2017-12-16T00:09:19.163Z,63.90
2017-12-16T00:11:47.409Z,63.50
2017-12-16T00:14:14.866Z,63.50
2017-12-16T00:16:43.123Z,63.70
2017-12-16T00:19:10.550Z,63.70
2017-12-16T00:21:38.018Z,63.40
2017-12-16T00:24:06.204Z,63.30
2017-12-16T00:26:33.691Z,63.20
2017-12-16T00:29:02.001Z,62.80
2017-12-16T00:31:29.428Z,62.90
2017-12-16T00:33:56.861Z,63.20
2017-12-16T00:36:25.110Z,63.90
2017-12-16T00:38:52.537Z,63.90
2017-12-16T00:41:20.009Z,64.30
2017-12-16T00:43:48.214Z,63.70
2017-12-16T00:46:15.643Z,64.30
2017-12-16T00:48:43.090Z,63.80
2017-12-16T00:51:10.522Z,63.90
2017-12-16T00:53:37.956Z,63.40
2017-12-16T00:56:05.388Z,63.60
2017-12-16T00:58:32.828Z,63.70
2017-12-16T01:01:01.020Z,63.50
2017-12-16T01:03:28.473Z,63.60
2017-12-16T01:05:55.888Z,63.60
2017-12-16T01:08:23.383Z,63.80
2017-12-16T01:10:50.819Z,64.20
2017-12-16T01:13:18.245Z,64.80
2017-12-16T01:15:45.681Z,65.40
2017-12-16T01:18:13.124Z,65.90
2017-12-16T01:20:40.552Z,66.30
2017-12-16T01:23:07.989Z,66.10
2017-12-16T01:25:35.416Z,65.90
2017-12-16T01:28:02.854Z,66.40
2017-12-16T01:30:31.055Z,66.70
2017-12-16T01:32:58.472Z,66.70
2017-12-16T01:35:37.865Z,66.30
2017-12-16T01:38:18.045Z,66.80
2017-12-16T01:40:45.471Z,66.80
2017-12-16T01:43:12.896Z,67.40
2017-12-16T01:45:41.108Z,68.30
2017-12-16T01:48:08.532Z,68.40
2017-12-16T01:50:35.972Z,68.20
2017-12-16T01:53:03.404Z,68.10
2017-12-16T01:55:30.865Z,68.10
2017-12-16T01:57:58.288Z,68.10
2017-12-16T02:00:25.716Z,68.00
2017-12-16T02:02:53.920Z,68.20
2017-12-16T02:05:21.357Z,68.20
2017-12-16T02:07:48.793Z,68.00
2017-12-16T02:10:16.352Z,67.90
2017-12-16T02:12:44.543Z,67.70
2017-12-16T02:15:12.013Z,67.80
2017-12-16T02:17:39.448Z,67.90
2017-12-16T02:20:07.649Z,68.00
2017-12-16T02:22:35.079Z,68.00
2017-12-16T02:25:02.538Z,68.00
2017-12-16T02:27:29.948Z,67.90
2017-12-16T02:29:57.425Z,67.90
2017-12-16T02:32:24.844Z,67.70
2017-12-16T02:34:52.280Z,67.80
2017-12-16T02:37:19.709Z,67.60
2017-12-16T02:39:47.150Z,67.80
2017-12-16T02:42:15.349Z,68.10
2017-12-16T02:44:42.777Z,68.10
2017-12-16T02:47:10.217Z,67.90
2017-12-16T02:49:37.644Z,67.90
2017-12-16T02:52:05.084Z,67.80
2017-12-16T02:54:33.277Z,67.80
2017-12-16T02:57:00.721Z,67.70
2017-12-16T02:59:28.148Z,67.70
2017-12-16T03:01:55.586Z,67.60
2017-12-16T03:04:23.013Z,67.60
2017-12-16T03:06:51.264Z,67.40
2017-12-16T03:09:19.452Z,67.20
2017-12-16T03:11:47.576Z,67.20
2017-12-16T03:14:15.783Z,67.10
2017-12-16T03:16:43.210Z,67.10
2017-12-16T03:19:10.642Z,67.00
2017-12-16T03:21:38.068Z,66.80
2017-12-16T03:24:05.562Z,66.90
2017-12-16T03:26:32.976Z,67.50
2017-12-16T03:29:00.445Z,67.40
2017-12-16T03:31:27.875Z,67.50
2017-12-16T03:33:55.311Z,67.30
2017-12-16T03:36:22.742Z,66.90
2017-12-16T03:38:50.941Z,66.70
2017-12-16T03:41:18.368Z,66.70
2017-12-16T03:43:45.845Z,66.70
2017-12-16T03:46:13.272Z,66.70
2017-12-16T03:48:40.700Z,66.30
2017-12-16T03:51:08.136Z,66.30
2017-12-16T03:53:35.557Z,66.30
2017-12-16T03:56:02.993Z,66.30
2017-12-16T03:58:31.189Z,66.10
2017-12-16T04:00:58.632Z,66.10
2017-12-16T04:03:26.077Z,66.00
2017-12-16T04:05:53.511Z,66.30
2017-12-16T04:08:20.941Z,66.50
2017-12-16T04:10:48.376Z,66.20
2017-12-16T04:13:15.802Z,66.30
2017-12-16T04:15:44.046Z,65.80
2017-12-16T04:18:11.478Z,65.80
2017-12-16T04:20:38.944Z,65.90
2017-12-16T04:23:07.149Z,65.90
2017-12-16T04:25:34.582Z,66.00
2017-12-16T04:28:02.015Z,66.30
2017-12-16T04:30:29.436Z,66.50
2017-12-16T04:32:57.636Z,66.70
2017-12-16T04:35:25.070Z,66.70
2017-12-16T04:37:52.509Z,66.60
2017-12-16T04:40:19.951Z,66.30
2017-12-16T04:42:47.388Z,65.80
2017-12-16T04:45:14.840Z,65.60
2017-12-16T04:47:42.289Z,65.60
2017-12-16T04:50:09.723Z,65.70
2017-12-16T04:52:37.164Z,65.60
2017-12-16T04:55:04.596Z,65.60
2017-12-16T04:57:32.024Z,65.50
2017-12-16T04:59:59.526Z,65.50
2017-12-16T05:02:27.670Z,65.40
2017-12-16T05:04:55.109Z,65.30
2017-12-16T05:07:22.552Z,65.30
2017-12-16T05:09:49.993Z,65.30
2017-12-16T05:12:17.433Z,65.30
2017-12-16T05:14:44.883Z,64.80
2017-12-16T05:17:12.320Z,65.40
2017-12-16T05:19:39.769Z,65.50
2017-12-16T05:22:07.202Z,65.60
2017-12-16T05:24:34.645Z,65.10
2017-12-16T05:27:02.074Z,65.20
2017-12-16T05:29:29.516Z,64.90
2017-12-16T05:31:56.947Z,64.90
2017-12-16T05:34:24.371Z,64.20
2017-12-16T05:36:52.578Z,64.10
2017-12-16T05:39:20.005Z,64.10
2017-12-16T05:41:47.450Z,63.60
2017-12-16T05:44:14.876Z,63.60
2017-12-16T05:46:42.321Z,63.70
2017-12-16T05:49:09.758Z,63.50
2017-12-16T05:51:37.193Z,63.30
2017-12-16T05:54:04.616Z,63.40
2017-12-16T05:56:32.821Z,63.50
2017-12-16T05:59:00.263Z,63.20
2017-12-16T06:01:27.732Z,62.70
2017-12-16T06:03:55.171Z,62.80
2017-12-16T06:06:22.608Z,63.10
2017-12-16T06:08:50.057Z,62.90
2017-12-16T06:11:17.472Z,63.10
2017-12-16T06:13:44.907Z,63.00
2017-12-16T06:16:12.350Z,62.80
2017-12-16T06:18:39.785Z,63.10
2017-12-16T06:21:07.978Z,63.00
2017-12-16T06:23:35.412Z,63.00
2017-12-16T06:26:02.840Z,63.20
2017-12-16T06:28:30.272Z,63.10
2017-12-16T06:30:57.700Z,63.00
2017-12-16T06:33:25.944Z,63.30
2017-12-16T06:35:53.376Z,63.30
2017-12-16T06:38:20.808Z,63.10
2017-12-16T06:40:48.243Z,62.90
2017-12-16T06:43:15.668Z,63.20
2017-12-16T06:45:43.119Z,62.90
2017-12-16T06:48:10.543Z,63.10
2017-12-16T06:50:37.968Z,63.10
2017-12-16T06:53:05.399Z,63.20
2017-12-16T06:55:33.607Z,63.80
2017-12-16T06:58:01.032Z,63.80
2017-12-16T07:00:28.468Z,64.00
2017-12-16T07:02:55.896Z,64.00
2017-12-16T07:05:24.098Z,64.40
2017-12-16T07:07:51.526Z,64.50
2017-12-16T07:10:18.948Z,64.50
2017-12-16T07:12:46.380Z,64.70
2017-12-16T07:15:14.588Z,64.20
2017-12-16T07:17:42.776Z,64.50
2017-12-16T07:20:10.256Z,64.50
2017-12-16T07:22:37.677Z,64.50
2017-12-16T07:25:05.864Z,64.40
2017-12-16T07:27:33.318Z,64.40
2017-12-16T07:30:00.745Z,64.10
2017-12-16T07:32:28.184Z,63.90
2017-12-16T07:34:55.620Z,63.70
2017-12-16T07:37:23.820Z,64.20
2017-12-16T07:39:51.258Z,64.20
2017-12-16T07:42:18.770Z,64.50
2017-12-16T07:44:46.192Z,64.30
2017-12-16T07:47:14.407Z,64.40
2017-12-16T07:49:41.840Z,64.50
2017-12-16T07:52:09.285Z,64.50
2017-12-16T07:54:36.718Z,65.10
2017-12-16T07:57:04.156Z,64.90
2017-12-16T07:59:31.593Z,65.20
2017-12-16T08:01:59.029Z,65.20
2017-12-16T08:04:26.464Z,65.20
2017-12-16T08:06:54.716Z,65.40
2017-12-16T08:09:22.928Z,65.00
2017-12-16T08:11:50.420Z,65.00
2017-12-16T08:14:18.672Z,65.20
2017-12-16T08:16:46.876Z,65.50
2017-12-16T08:19:14.319Z,64.80
2017-12-16T08:21:41.761Z,64.90
2017-12-16T08:24:09.200Z,64.90
2017-12-16T08:26:36.640Z,64.80
2017-12-16T08:29:04.081Z,64.80
2017-12-16T08:31:31.518Z,64.60
2017-12-16T08:33:59.000Z,64.50
2017-12-16T08:36:26.433Z,64.70
2017-12-16T08:38:53.921Z,64.90
2017-12-16T08:41:21.360Z,64.80
2017-12-16T08:43:49.808Z,67.10
2017-12-16T08:46:17.248Z,65.70
2017-12-16T08:48:44.688Z,65.80
2017-12-16T08:51:12.151Z,65.80
2017-12-16T08:53:39.592Z,66.70
2017-12-16T08:56:07.804Z,67.20
2017-12-16T08:58:35.253Z,66.90
2017-12-16T09:01:02.732Z,66.80
2017-12-16T09:03:30.172Z,67.00
2017-12-16T09:05:57.611Z,65.90
2017-12-16T09:08:25.051Z,66.20
2017-12-16T09:10:52.498Z,65.80
2017-12-16T09:13:19.946Z,66.30
2017-12-16T09:15:47.403Z,66.40
2017-12-16T09:18:15.613Z,66.60
2017-12-16T09:20:43.057Z,66.60
2017-12-16T09:23:11.381Z,66.30
2017-12-16T09:25:38.820Z,66.00
2017-12-16T09:28:07.660Z,66.10
2017-12-16T09:30:35.112Z,66.10
2017-12-16T09:33:02.583Z,66.20
2017-12-16T09:35:30.813Z,66.40
2017-12-16T09:37:58.253Z,66.50
2017-12-16T09:40:25.805Z,66.50
2017-12-16T09:42:53.239Z,66.60
2017-12-16T09:45:20.883Z,67.00
2017-12-16T09:47:48.416Z,67.20
2017-12-16T09:50:15.853Z,67.70
2017-12-16T09:52:43.304Z,67.90
2017-12-16T09:55:10.821Z,67.40
2017-12-16T09:57:38.205Z,66.40
2017-12-16T10:00:05.655Z,66.90
2017-12-16T10:02:33.097Z,66.20
2017-12-16T10:05:00.538Z,65.40
2017-12-16T10:07:28.011Z,65.40
2017-12-16T10:09:55.465Z,65.40
2017-12-16T10:12:22.902Z,65.20
2017-12-16T10:14:50.453Z,65.30
2017-12-16T10:17:18.658Z,64.30
2017-12-16T10:19:46.097Z,64.30
2017-12-16T10:22:13.548Z,64.20
2017-12-16T10:24:41.000Z,63.90
2017-12-16T10:27:08.556Z,64.20
2017-12-16T10:29:36.004Z,63.00
2017-12-16T10:32:04.212Z,64.00
2017-12-16T10:34:31.644Z,63.90
2017-12-16T10:36:59.085Z,63.10
2017-12-16T10:39:26.517Z,63.00
2017-12-16T10:41:53.964Z,62.90
2017-12-16T10:44:21.380Z,62.60
2017-12-16T10:46:49.630Z,62.20
2017-12-16T10:49:17.065Z,62.20
2017-12-16T10:51:44.496Z,62.40
2017-12-16T10:54:12.117Z,62.20
2017-12-16T10:56:39.544Z,62.10
2017-12-16T10:59:06.988Z,62.30
2017-12-16T11:01:34.419Z,61.50
2017-12-16T11:04:01.853Z,62.00
2017-12-16T11:06:29.283Z,62.10
2017-12-16T11:08:57.492Z,62.10
2017-12-16T11:11:24.966Z,62.10
2017-12-16T11:13:52.408Z,61.90
2017-12-16T11:16:19.833Z,62.20
2017-12-16T11:18:47.276Z,62.30
2017-12-16T11:21:14.704Z,62.60
2017-12-16T11:23:42.185Z,62.70
2017-12-16T11:26:10.423Z,63.50
2017-12-16T11:28:37.864Z,63.10
2017-12-16T11:31:05.308Z,63.60
2017-12-16T11:33:32.841Z,64.20
2017-12-16T11:36:00.290Z,64.10
2017-12-16T11:38:27.757Z,64.30
2017-12-16T11:40:55.191Z,64.70
2017-12-16T11:43:22.624Z,64.60
2017-12-16T11:45:50.197Z,64.50
2017-12-16T11:48:17.724Z,66.10
2017-12-16T11:50:45.214Z,66.50
2017-12-16T11:53:12.653Z,66.50
2017-12-16T11:55:40.164Z,67.30
2017-12-16T11:58:07.702Z,68.00
2017-12-16T12:00:35.180Z,69.20
2017-12-16T12:03:02.649Z,70.00
2017-12-16T12:05:30.506Z,71.10
2017-12-16T12:07:57.938Z,70.70
2017-12-16T12:10:25.364Z,71.30
2017-12-16T12:12:52.817Z,71.50
2017-12-16T12:15:20.261Z,72.50
2017-12-16T12:17:47.769Z,73.00
2017-12-16T12:20:15.330Z,72.60
2017-12-16T12:22:43.536Z,74.20
2017-12-16T12:25:10.989Z,74.20
2017-12-16T12:27:38.432Z,74.30
2017-12-16T12:30:05.872Z,74.60
2017-12-16T12:32:33.314Z,74.10
2017-12-16T12:35:00.753Z,74.00
2017-12-16T12:37:28.205Z,73.90
2017-12-16T12:39:55.641Z,73.80
2017-12-16T12:42:23.134Z,73.80
2017-12-16T12:44:51.345Z,72.70
2017-12-16T12:47:18.898Z,72.70
2017-12-16T12:49:46.350Z,73.70
2017-12-16T12:52:13.775Z,73.80
2017-12-16T12:54:41.224Z,73.80
2017-12-16T12:57:08.660Z,72.90
2017-12-16T12:59:36.096Z,73.70
2017-12-16T13:02:03.540Z,73.80
2017-12-16T13:04:31.020Z,73.10
2017-12-16T13:06:59.275Z,72.50
2017-12-16T13:09:27.524Z,73.30
2017-12-16T13:11:54.979Z,72.50
2017-12-16T13:14:22.469Z,73.30
2017-12-16T13:16:49.886Z,74.10
2017-12-16T13:19:17.343Z,73.30
2017-12-16T13:21:44.768Z,72.60
2017-12-16T13:26:52.304Z,72.10
2017-12-16T13:29:19.752Z,70.50
2017-12-16T13:31:47.184Z,70.30
2017-12-16T13:34:14.748Z,70.40
2017-12-16T13:36:42.296Z,69.40
2017-12-16T13:39:09.745Z,69.00
2017-12-16T13:41:38.052Z,68.40
2017-12-16T13:44:05.639Z,67.90
2017-12-16T13:46:33.184Z,67.40
2017-12-16T13:49:00.626Z,68.00
2017-12-16T13:51:28.176Z,66.90
2017-12-16T13:53:55.693Z,68.10
2017-12-16T13:56:23.233Z,67.80
2017-12-16T13:58:50.679Z,67.90
2017-12-16T14:01:18.124Z,67.80
2017-12-16T14:03:45.592Z,68.70
2017-12-16T14:06:13.106Z,70.30
2017-12-16T14:08:40.543Z,68.10
2017-12-16T14:11:07.973Z,68.90
2017-12-16T14:13:35.418Z,68.40
2017-12-16T14:16:02.853Z,66.90
2017-12-16T14:18:30.422Z,67.50
2017-12-16T14:20:57.853Z,67.70
2017-12-16T14:23:25.345Z,67.50
2017-12-16T14:25:52.790Z,67.20
2017-12-16T14:28:20.228Z,67.90
2017-12-16T14:30:47.671Z,68.30
2017-12-16T14:33:15.257Z,67.10
2017-12-16T14:35:42.687Z,67.50
2017-12-16T14:38:10.892Z,67.70
2017-12-16T14:40:38.328Z,67.70
2017-12-16T14:43:05.786Z,68.00
2017-12-16T14:45:33.272Z,68.10
2017-12-16T14:48:00.886Z,68.40
2017-12-16T14:50:28.277Z,68.60
2017-12-16T14:52:55.779Z,68.40
2017-12-16T14:55:23.220Z,68.50
2017-12-16T14:57:50.671Z,68.60
2017-12-16T15:00:18.136Z,68.50
2017-12-16T15:02:46.340Z,69.20
2017-12-16T15:05:13.813Z,69.20
2017-12-16T15:07:42.783Z,69.50
2017-12-16T15:10:10.353Z,69.40
2017-12-16T15:12:37.842Z,68.70
2017-12-16T15:15:05.318Z,68.60
2017-12-16T15:17:32.764Z,68.60
2017-12-16T15:20:00.380Z,68.20
2017-12-16T15:22:27.894Z,69.00
2017-12-16T15:24:56.111Z,68.70
2017-12-16T15:27:23.549Z,68.70
2017-12-16T15:29:51.008Z,68.40
2017-12-16T15:32:18.552Z,68.50
2017-12-16T15:34:45.952Z,69.20
2017-12-16T15:37:13.434Z,68.20
2017-12-16T15:39:40.852Z,68.30
2017-12-16T15:42:08.292Z,68.60
2017-12-16T15:44:35.728Z,69.10
2017-12-16T15:47:03.168Z,69.40
2017-12-16T15:49:30.653Z,69.40
2017-12-16T15:51:58.187Z,69.20
2017-12-16T15:54:26.636Z,69.70
2017-12-16T15:56:54.060Z,69.90
2017-12-16T15:59:21.508Z,68.70
2017-12-16T16:01:48.980Z,69.30
2017-12-16T16:04:16.420Z,69.20
2017-12-16T16:06:43.902Z,69.10
2017-12-16T16:09:12.095Z,69.70
2017-12-16T16:11:39.530Z,69.70
2017-12-16T16:14:08.021Z,69.50
2017-12-16T16:16:35.448Z,69.00
2017-12-16T16:19:02.892Z,69.30
2017-12-16T16:21:30.333Z,69.40
2017-12-16T16:23:57.785Z,69.60
2017-12-16T16:26:25.224Z,70.00
2017-12-16T16:28:52.800Z,70.20
2017-12-16T16:31:20.228Z,70.60
2017-12-16T16:33:47.680Z,70.50
2017-12-16T16:36:15.120Z,71.00
2017-12-16T16:38:42.659Z,71.10
2017-12-16T16:41:10.271Z,70.50
2017-12-16T16:43:37.740Z,71.20
2017-12-16T16:46:05.206Z,70.40
2017-12-16T16:48:32.746Z,70.00
2017-12-16T16:51:00.178Z,69.70
2017-12-16T16:53:27.662Z,70.10
2017-12-16T16:55:55.894Z,69.70
2017-12-16T16:58:23.394Z,69.70
2017-12-16T17:00:50.858Z,69.40
2017-12-16T17:03:18.348Z,69.30
2017-12-16T17:05:45.775Z,69.20
2017-12-16T17:08:13.972Z,69.30
2017-12-16T17:10:41.453Z,69.20
2017-12-16T17:13:08.940Z,69.10
2017-12-16T17:15:37.160Z,69.10
2017-12-16T17:18:04.633Z,69.10
2017-12-16T17:20:32.105Z,69.20
2017-12-16T17:22:59.524Z,69.10
2017-12-16T17:25:27.753Z,70.50
2017-12-16T17:27:55.208Z,71.10
2017-12-16T17:30:22.728Z,70.50
2017-12-16T17:32:50.211Z,70.20
2017-12-16T17:35:17.786Z,70.40
2017-12-16T17:37:45.260Z,70.90
2017-12-16T17:40:12.680Z,70.00
2017-12-16T17:42:52.444Z,70.80
2017-12-16T17:45:19.920Z,70.60
2017-12-16T17:47:47.451Z,70.80
2017-12-16T17:50:14.879Z,70.50
2017-12-16T17:52:42.429Z,70.80
2017-12-16T17:55:09.865Z,71.30
2017-12-16T17:57:37.364Z,71.50
2017-12-16T18:00:04.839Z,71.10
2017-12-16T18:02:32.340Z,71.40
2017-12-16T18:05:00.523Z,70.70
2017-12-16T18:07:28.020Z,70.70
2017-12-16T18:09:55.512Z,71.30
2017-12-16T18:12:23.908Z,71.90
2017-12-16T18:14:51.392Z,72.30
2017-12-16T18:17:19.629Z,71.70
2017-12-16T18:19:47.061Z,71.50
2017-12-16T18:22:14.540Z,72.10
2017-12-16T18:24:42.737Z,71.30
2017-12-16T18:27:10.254Z,71.30
2017-12-16T18:29:37.700Z,71.50
2017-12-16T18:32:05.186Z,71.70
2017-12-16T18:34:32.674Z,70.80
2017-12-16T18:37:00.912Z,71.30
2017-12-16T18:39:28.390Z,71.30
2017-12-16T18:41:56.654Z,71.00
2017-12-16T18:44:24.108Z,71.00
2017-12-16T18:46:51.639Z,71.80
2017-12-16T18:49:19.151Z,70.40
2017-12-16T18:51:46.739Z,69.70
2017-12-16T18:54:14.219Z,69.60
2017-12-16T18:56:41.712Z,69.50
2017-12-16T18:59:09.180Z,69.80
2017-12-16T19:01:36.659Z,70.00
2017-12-16T19:04:04.148Z,69.20
2017-12-16T19:06:31.691Z,69.90
2017-12-16T19:08:59.244Z,69.70
2017-12-16T19:11:26.696Z,69.50
2017-12-16T19:13:54.200Z,69.90
2017-12-16T19:16:22.451Z,69.80
2017-12-16T19:18:50.037Z,69.80
2017-12-16T19:21:17.603Z,70.30
2017-12-16T19:23:45.069Z,71.00
2017-12-16T19:26:12.558Z,71.10
2017-12-16T19:28:40.795Z,71.80
2017-12-16T19:31:08.267Z,71.90
2017-12-16T19:33:35.752Z,72.30
2017-12-16T19:36:03.995Z,72.00
2017-12-16T19:38:31.462Z,72.10
2017-12-16T19:40:59.093Z,71.70
2017-12-16T19:43:26.570Z,72.70
2017-12-16T19:45:54.155Z,73.00
2017-12-16T19:48:21.635Z,73.00
2017-12-16T19:50:49.114Z,73.20
2017-12-16T19:53:16.643Z,72.90
2017-12-16T19:55:44.060Z,74.00
2017-12-16T19:58:11.499Z,72.90
2017-12-16T20:00:38.996Z,73.40
2017-12-16T20:03:07.241Z,72.50
2017-12-16T20:05:34.708Z,72.50
2017-12-16T20:08:02.264Z,72.80
2017-12-16T20:10:29.739Z,72.70
2017-12-16T20:12:57.212Z,72.10
2017-12-16T20:15:24.796Z,72.30
2017-12-16T20:17:52.340Z,72.00
2017-12-16T20:20:19.868Z,71.80
2017-12-16T20:22:47.333Z,71.90
2017-12-16T20:25:14.761Z,71.80
2017-12-16T20:27:42.248Z,71.80
2017-12-16T20:30:09.727Z,71.90
2017-12-16T20:32:37.297Z,71.80
2017-12-16T20:35:05.548Z,71.50
2017-12-16T20:37:33.824Z,72.10
2017-12-16T20:40:01.300Z,72.10
2017-12-16T20:42:29.762Z,72.30
2017-12-16T20:44:57.288Z,72.30
2017-12-16T20:47:24.781Z,71.40
2017-12-16T20:49:53.087Z,71.10
2017-12-16T20:52:20.571Z,71.00
2017-12-16T20:54:48.044Z,71.20
2017-12-16T20:57:15.533Z,71.10
2017-12-16T20:59:43.201Z,71.10
2017-12-16T21:02:10.820Z,71.90
2017-12-16T21:04:38.320Z,71.10
2017-12-16T21:07:05.796Z,71.80
2017-12-16T21:09:33.370Z,71.70
2017-12-16T21:12:00.852Z,71.00
2017-12-16T21:14:28.439Z,70.40
2017-12-16T21:16:55.916Z,71.10
2017-12-16T21:19:23.412Z,71.30
2017-12-16T21:21:51.679Z,71.50
2017-12-16T21:24:19.227Z,71.40
2017-12-16T21:26:46.706Z,70.60
2017-12-16T21:29:14.231Z,71.10
2017-12-16T21:31:41.755Z,71.40
2017-12-16T21:34:11.016Z,70.90
2017-12-16T21:36:38.495Z,70.90
2017-12-16T21:39:06.061Z,71.60
2017-12-16T21:41:33.545Z,71.40
2017-12-16T21:44:01.100Z,71.80
2017-12-16T21:46:29.374Z,73.50
2017-12-16T21:48:57.651Z,72.20
2017-12-16T21:51:25.196Z,72.20
2017-12-16T21:53:52.717Z,73.50
2017-12-16T21:56:21.004Z,72.60
2017-12-16T21:58:48.474Z,72.60
2017-12-16T22:01:15.963Z,72.70
2017-12-16T22:03:44.204Z,72.60
2017-12-16T22:06:11.682Z,72.60
2017-12-16T22:08:39.932Z,72.20
2017-12-16T22:11:07.436Z,72.20
2017-12-16T22:13:34.940Z,72.30
2017-12-16T22:16:02.421Z,72.50
2017-12-16T22:18:29.935Z,72.10
2017-12-16T22:20:57.408Z,72.30
2017-12-16T22:23:24.888Z,72.20
2017-12-16T22:25:52.359Z,71.90
2017-12-16T22:28:19.850Z,70.40
2017-12-16T22:30:47.344Z,71.40
2017-12-16T22:33:14.885Z,71.70
2017-12-16T22:35:43.124Z,71.50
2017-12-16T22:38:10.635Z,71.50
2017-12-16T22:40:38.098Z,72.20
2017-12-16T22:43:05.576Z,71.90
2017-12-16T22:45:33.850Z,72.00
2017-12-16T22:48:01.323Z,72.00
2017-12-16T22:50:28.811Z,72.30
2017-12-16T22:52:57.090Z,72.50
2017-12-16T22:55:24.644Z,72.50
2017-12-16T22:57:52.180Z,72.10
2017-12-16T23:00:19.660Z,72.20
2017-12-16T23:02:47.137Z,72.10
2017-12-16T23:05:14.647Z,71.90
2017-12-16T23:07:42.154Z,71.80
2017-12-16T23:10:10.121Z,71.70
2017-12-16T23:12:37.610Z,72.00
2017-12-16T23:15:05.852Z,71.90
2017-12-16T23:17:33.418Z,71.90
2017-12-16T23:20:00.934Z,72.20
2017-12-16T23:22:28.434Z,72.20
2017-12-16T23:24:56.662Z,72.60
2017-12-16T23:27:24.138Z,72.60
2017-12-16T23:29:52.369Z,73.00
2017-12-16T23:32:19.851Z,73.10
2017-12-16T23:34:48.082Z,74.70
2017-12-16T23:37:15.617Z,74.70
2017-12-16T23:39:43.078Z,74.90
2017-12-16T23:42:10.542Z,74.40
2017-12-16T23:44:38.778Z,74.60
2017-12-16T23:47:06.240Z,74.60
2017-12-16T23:49:34.478Z,75.20
2017-12-16T23:52:01.942Z,75.30
2017-12-16T23:54:30.141Z,75.80
2017-12-16T23:56:57.617Z,75.80
2017-12-16T23:59:25.919Z,75.40
